Time;durP1;ratioP1;P1;durP2;ratioP2;P2;SDS_P1;SDS_P2;PMS_P1;PMS_P2;Temp;Humidity;BMP_temperature;BMP_pressure;BME280_temperature;BME280_humidity;BME280_pressure;Samples;Min_cycle;Max_cycle;Signal;HPM_P1;HPM_P2
2022/04/16 05:00:31;;;;;;;5.40;3.50;;;12.50;97.20;;;;;;1688165;29;20660;-76
2022/04/16 05:01:22;;;;;;;6.72;3.33;;;12.50;97.20;;;;;;1688114;29;20589;-76
2022/04/16 05:02:14;;;;;;;4.70;3.47;;;12.50;97.20;;;;;;1688102;29;20684;-76
2022/04/16 05:03:04;;;;;;;4.88;3.40;;;12.50;97.20;;;;;;1688066;29;20295;-76
2022/04/16 05:03:56;;;;;;;3.90;3.50;;;12.50;97.20;;;;;;1688166;29;20212;-76
2022/04/16 05:04:47;;;;;;;5.63;3.15;;;12.50;97.20;;;;;;1687991;29;20232;-76
2022/04/16 05:05:39;;;;;;;3.20;3.00;;;12.50;97.20;;;;;;1688131;29;20208;-76
2022/04/16 05:06:30;;;;;;;3.15;2.95;;;12.50;97.20;;;;;;1688103;29;20452;-76
2022/04/16 05:07:22;;;;;;;4.20;3.20;;;12.60;97.20;;;;;;1687733;29;20589;-76
2022/04/16 05:08:13;;;;;;;3.50;3.20;;;12.50;97.20;;;;;;1687510;29;20569;-76
2022/04/16 05:09:04;;;;;;;4.23;3.40;;;12.60;97.20;;;;;;1687956;29;20197;-76
2022/04/16 05:09:55;;;;;;;3.65;3.35;;;12.60;97.20;;;;;;1687964;29;20239;-76
2022/04/16 05:10:47;;;;;;;4.17;3.87;;;12.60;97.20;;;;;;1688034;29;20498;-76
2022/04/16 05:11:37;;;;;;;3.35;3.03;;;12.60;97.20;;;;;;1688045;29;20208;-76
2022/04/16 05:12:29;;;;;;;4.10;3.70;;;12.60;97.20;;;;;;1687956;29;20215;-77
2022/04/16 05:13:20;;;;;;;3.75;3.45;;;12.60;97.20;;;;;;1687843;29;20217;-76
2022/04/16 05:14:11;;;;;;;8.53;3.70;;;12.60;97.20;;;;;;1687991;29;20204;-75
2022/04/16 05:15:03;;;;;;;5.03;3.50;;;12.60;97.20;;;;;;1687736;29;20243;-76
2022/04/16 05:15:56;;;;;;;5.65;3.58;;;12.60;97.20;;;;;;1687921;29;20269;-75
2022/04/16 05:16:48;;;;;;;3.33;3.13;;;12.60;97.20;;;;;;1687901;29;20699;-76
2022/04/16 05:17:40;;;;;;;4.43;3.80;;;12.60;97.20;;;;;;1687951;29;20212;-76
2022/04/16 05:18:31;;;;;;;4.50;3.33;;;12.60;97.20;;;;;;1687593;29;20208;-76
2022/04/16 05:19:22;;;;;;;4.83;3.70;;;12.60;97.20;;;;;;1687820;29;20285;-76
2022/04/16 05:20:13;;;;;;;4.10;3.60;;;12.70;97.20;;;;;;1687975;29;20480;-76
2022/04/16 05:21:05;;;;;;;3.23;2.93;;;12.70;97.20;;;;;;1689182;29;20211;-75
2022/04/16 05:21:56;;;;;;;5.50;3.40;;;12.70;97.20;;;;;;1687795;29;20236;-75
2022/04/16 05:22:47;;;;;;;4.00;3.47;;;12.70;97.20;;;;;;1688079;29;20215;-76
2022/04/16 05:23:39;;;;;;;5.00;3.60;;;12.70;97.20;;;;;;1688065;29;20216;-75
2022/04/16 05:24:31;;;;;;;6.60;3.65;;;12.70;97.20;;;;;;1687883;29;20208;-75
2022/04/16 05:25:22;;;;;;;4.97;3.70;;;12.70;97.20;;;;;;1687945;29;20204;-75
2022/04/16 05:26:13;;;;;;;3.60;3.30;;;12.70;97.20;;;;;;1687932;29;20204;-75
2022/04/16 05:27:04;;;;;;;6.30;3.15;;;12.70;97.20;;;;;;1687878;29;20208;-76
2022/04/16 05:27:56;;;;;;;4.32;3.65;;;12.80;97.20;;;;;;1687881;29;20206;-75
2022/04/16 05:28:47;;;;;;;4.28;3.75;;;12.80;97.20;;;;;;1687562;29;20245;-75
2022/04/16 05:29:56;;;;;;;3.90;3.60;;;12.80;97.20;;;;;;1688073;29;20209;-76
2022/04/16 05:30:48;;;;;;;4.43;4.03;;;12.80;97.20;;;;;;1687879;29;20300;-75
2022/04/16 05:31:41;;;;;;;4.15;3.80;;;12.80;97.20;;;;;;1687904;29;20205;-75
2022/04/16 05:32:36;;;;;;;4.82;3.80;;;12.80;97.20;;;;;;1687924;29;20704;-75
2022/04/16 05:34:37;;;;;;;6.55;4.05;;;12.80;97.20;;;;;;1688089;29;20208;-75
2022/04/16 05:35:28;;;;;;;4.40;4.00;;;12.80;97.20;;;;;;1687918;29;20236;-75
2022/04/16 05:36:20;;;;;;;6.10;4.27;;;12.90;97.20;;;;;;1687841;29;20211;-76
2022/04/16 05:37:11;;;;;;;4.53;3.60;;;12.90;97.20;;;;;;1687956;29;20680;-76
2022/04/16 05:38:02;;;;;;;3.53;3.23;;;12.90;97.20;;;;;;1687553;29;20242;-75
2022/04/16 05:38:53;;;;;;;3.97;3.67;;;12.90;97.20;;;;;;1687662;29;20208;-75
2022/04/16 05:39:45;;;;;;;3.90;3.50;;;12.90;97.20;;;;;;1687929;29;20204;-76
2022/04/16 05:40:35;;;;;;;5.07;3.60;;;12.90;97.20;;;;;;1688134;29;20208;-75
2022/04/16 05:41:27;;;;;;;4.03;3.63;;;12.90;97.20;;;;;;1688025;29;20208;-75
2022/04/16 05:42:18;;;;;;;3.63;3.33;;;12.90;97.20;;;;;;1687928;29;20601;-76
2022/04/16 05:43:10;;;;;;;4.82;3.70;;;13.00;97.20;;;;;;1687833;29;20209;-75
2022/04/16 05:44:01;;;;;;;4.13;3.83;;;13.00;97.20;;;;;;1687938;29;20208;-75
2022/04/16 05:44:53;;;;;;;3.75;3.45;;;13.00;97.20;;;;;;1687791;29;20303;-75
2022/04/16 05:45:44;;;;;;;3.80;3.50;;;13.00;97.20;;;;;;1687767;29;20247;-76
2022/04/16 05:46:36;;;;;;;4.43;4.03;;;13.00;97.20;;;;;;1687871;29;20209;-76
2022/04/16 05:47:28;;;;;;;4.70;4.28;;;13.00;97.20;;;;;;1687752;29;20244;-75
2022/04/16 05:48:20;;;;;;;3.95;3.65;;;13.10;97.20;;;;;;1687418;29;20247;-76
2022/04/16 05:49:11;;;;;;;4.32;3.92;;;13.10;97.20;;;;;;1687792;29;20251;-75
2022/04/16 05:50:04;;;;;;;4.03;3.73;;;13.10;97.20;;;;;;1687889;29;20223;-75
2022/04/16 05:50:56;;;;;;;3.92;3.63;;;13.10;97.20;;;;;;1687805;29;20251;-75
2022/04/16 05:51:48;;;;;;;4.25;3.58;;;13.10;97.20;;;;;;1687783;29;20212;-75
2022/04/16 05:52:39;;;;;;;3.80;3.50;;;13.10;97.20;;;;;;1687839;29;20251;-76
2022/04/16 05:53:31;;;;;;;3.90;3.50;;;13.10;97.20;;;;;;1687718;29;20223;-76
2022/04/16 05:54:21;;;;;;;4.35;3.95;;;13.20;97.20;;;;;;1687633;29;20232;-75
2022/04/16 05:55:14;;;;;;;4.60;4.20;;;13.20;97.20;;;;;;1687757;29;20204;-75
2022/04/16 05:56:04;;;;;;;4.15;3.75;;;13.20;97.20;;;;;;1687401;29;20215;-75
2022/04/16 05:56:57;;;;;;;4.03;3.73;;;13.20;97.20;;;;;;1687772;29;20204;-76
2022/04/16 05:57:48;;;;;;;3.60;3.30;;;13.20;97.20;;;;;;1687816;29;20968;-75
2022/04/16 05:58:40;;;;;;;4.10;3.80;;;13.20;97.20;;;;;;1687470;29;20204;-75
2022/04/16 05:59:31;;;;;;;4.25;3.95;;;13.30;97.20;;;;;;1687697;29;20287;-75
2022/04/16 06:00:22;;;;;;;3.80;3.50;;;13.30;97.20;;;;;;1687793;29;20235;-75
2022/04/16 06:01:14;;;;;;;3.92;3.60;;;13.30;97.20;;;;;;1687684;29;20239;-76
2022/04/16 06:02:06;;;;;;;4.40;4.00;;;13.30;97.20;;;;;;1687718;29;20212;-75
2022/04/16 06:02:58;;;;;;;3.75;3.45;;;13.30;97.20;;;;;;1687716;29;20208;-76
2022/04/16 06:03:50;;;;;;;4.15;3.80;;;13.30;97.20;;;;;;1687742;29;20205;-75
2022/04/16 06:04:40;;;;;;;4.00;3.70;;;13.30;97.20;;;;;;1687683;29;20280;-75
2022/04/16 06:05:32;;;;;;;4.13;3.80;;;13.30;97.20;;;;;;1687674;29;20204;-76
2022/04/16 06:06:23;;;;;;;3.90;3.55;;;13.30;97.20;;;;;;1687732;29;20216;-75
2022/04/16 06:07:15;;;;;;;3.73;3.43;;;13.30;97.20;;;;;;1687726;29;20207;-75
2022/04/16 06:08:07;;;;;;;3.85;3.55;;;13.40;97.20;;;;;;1687374;29;20311;-75
2022/04/16 06:08:58;;;;;;;3.80;3.50;;;13.40;97.20;;;;;;1687720;29;20204;-75
2022/04/16 06:09:49;;;;;;;3.60;3.30;;;13.40;97.20;;;;;;1687616;29;20235;-75
2022/04/16 06:10:41;;;;;;;4.10;3.70;;;13.40;97.20;;;;;;1687714;29;20706;-75
2022/04/16 06:11:32;;;;;;;4.10;3.70;;;13.50;97.20;;;;;;1687669;29;20243;-76
2022/04/16 06:12:26;;;;;;;4.10;3.80;;;13.50;97.20;;;;;;1687673;29;20208;-75
2022/04/16 06:13:17;;;;;;;3.97;3.67;;;13.50;97.20;;;;;;1687505;29;20663;-76
2022/04/16 06:14:09;;;;;;;3.70;3.40;;;13.50;97.20;;;;;;1687583;29;20695;-75
2022/04/16 06:15:00;;;;;;;3.83;3.53;;;13.50;97.20;;;;;;1687551;29;20228;-76
2022/04/16 06:15:52;;;;;;;3.90;3.60;;;13.50;97.20;;;;;;1687704;29;20643;-76
2022/04/16 06:16:43;;;;;;;3.65;3.35;;;13.50;97.20;;;;;;1687612;29;20204;-75
2022/04/16 06:17:34;;;;;;;4.13;3.80;;;13.60;97.20;;;;;;1687596;29;20208;-76
2022/04/16 06:18:27;;;;;;;4.00;3.70;;;13.60;97.20;;;;;;1687282;29;20204;-75
2022/04/16 06:19:18;;;;;;;3.80;3.50;;;13.60;97.20;;;;;;1687645;29;20205;-75
2022/04/16 06:20:11;;;;;;;3.83;3.53;;;13.60;97.20;;;;;;1687666;29;20702;-75
2022/04/16 06:21:02;;;;;;;4.30;3.97;;;13.60;97.20;;;;;;1687706;29;20204;-75
2022/04/16 06:21:53;;;;;;;3.80;3.50;;;13.60;97.20;;;;;;1687628;29;20232;-75
2022/04/16 06:22:45;;;;;;;3.67;3.40;;;13.60;97.20;;;;;;1687561;29;20204;-76
2022/04/16 06:23:36;;;;;;;4.05;3.65;;;13.60;97.20;;;;;;1687730;29;20569;-75
2022/04/16 06:24:28;;;;;;;3.50;3.23;;;13.60;97.20;;;;;;1687521;29;20578;-75
2022/04/16 06:25:18;;;;;;;3.80;3.38;;;13.60;97.20;;;;;;1687651;29;20509;-75
2022/04/16 06:26:10;;;;;;;3.80;3.50;;;13.60;97.20;;;;;;1687716;29;20211;-75
2022/04/16 06:27:02;;;;;;;4.57;4.18;;;13.60;97.20;;;;;;1687638;29;20239;-75
2022/04/16 06:27:54;;;;;;;3.83;3.53;;;13.60;97.20;;;;;;1687654;29;20214;-75
2022/04/16 06:28:44;;;;;;;4.00;3.70;;;13.60;97.20;;;;;;1687301;29;20211;-75
2022/04/16 06:29:36;;;;;;;3.57;3.27;;;13.60;97.20;;;;;;1687412;29;20211;-76
2022/04/16 06:30:27;;;;;;;4.25;3.95;;;13.60;97.20;;;;;;1687394;29;20603;-74
2022/04/16 06:31:19;;;;;;;3.97;3.67;;;13.60;97.20;;;;;;1687545;29;20579;-75
2022/04/16 06:32:09;;;;;;;3.80;3.50;;;13.60;97.20;;;;;;1687658;29;20240;-75
2022/04/16 06:33:01;;;;;;;4.63;4.23;;;13.70;97.20;;;;;;1687680;29;20200;-75
2022/04/16 06:33:53;;;;;;;4.15;3.75;;;13.70;97.20;;;;;;1687575;29;20211;-75
2022/04/16 06:34:45;;;;;;;4.45;4.05;;;13.70;97.20;;;;;;1687590;29;20232;-75
2022/04/16 06:35:36;;;;;;;3.75;3.45;;;13.70;97.20;;;;;;1687675;29;20223;-75
2022/04/16 06:36:27;;;;;;;3.58;3.28;;;13.70;97.20;;;;;;1687548;29;20244;-75
2022/04/16 06:37:19;;;;;;;3.93;3.53;;;13.60;97.20;;;;;;1687600;29;20197;-75
2022/04/16 06:38:10;;;;;;;3.83;3.53;;;13.60;97.20;;;;;;1687305;29;20247;-75
2022/04/16 06:39:01;;;;;;;3.50;3.20;;;13.60;97.20;;;;;;1687768;29;20205;-75
2022/04/16 06:39:52;;;;;;;3.80;3.50;;;13.60;97.20;;;;;;1687571;29;20232;-75
2022/04/16 06:40:44;;;;;;;4.40;3.60;;;13.60;97.20;;;;;;1687627;29;20204;-75
2022/04/16 06:41:34;;;;;;;3.03;2.80;;;13.60;97.20;;;;;;1687716;29;20204;-75
2022/04/16 06:42:26;;;;;;;4.00;3.70;;;13.60;97.20;;;;;;1687620;29;20204;-75
2022/04/16 06:43:17;;;;;;;3.67;3.38;;;13.60;97.20;;;;;;1687751;29;20564;-75
2022/04/16 06:44:09;;;;;;;3.67;3.37;;;13.60;97.20;;;;;;1687375;29;20312;-75
2022/04/16 06:44:59;;;;;;;3.58;3.28;;;13.60;97.20;;;;;;1687398;29;20232;-75
2022/04/16 06:45:51;;;;;;;3.50;3.20;;;13.60;97.20;;;;;;1688806;29;20201;-76
2022/04/16 06:46:42;;;;;;;3.53;3.22;;;13.60;97.20;;;;;;1688452;29;20281;-75
2022/04/16 06:47:33;;;;;;;3.67;3.37;;;13.50;97.20;;;;;;1684975;29;20201;-75
2022/04/16 06:48:24;;;;;;;4.15;3.85;;;13.50;97.20;;;;;;1688005;29;20205;-75
2022/04/16 06:49:18;;;;;;;3.73;3.43;;;13.50;97.20;;;;;;1687350;29;20193;-76
2022/04/16 06:50:09;;;;;;;3.15;2.85;;;13.50;97.20;;;;;;1682420;29;20217;-76
2022/04/16 06:51:01;;;;;;;3.88;3.58;;;13.50;97.20;;;;;;1688425;29;20203;-76
2022/04/16 06:51:52;;;;;;;3.83;3.53;;;13.50;97.20;;;;;;1688147;29;20255;-75
2022/04/16 06:52:45;;;;;;;3.47;3.20;;;13.50;97.20;;;;;;1688811;29;20232;-75
2022/04/16 06:53:35;;;;;;;3.63;3.33;;;13.50;97.20;;;;;;1685090;29;20924;-75
2022/04/16 06:54:27;;;;;;;4.13;3.73;;;13.60;97.20;;;;;;1688040;29;20656;-75
2022/04/16 06:55:19;;;;;;;3.70;3.40;;;13.60;97.20;;;;;;1689028;29;20257;-75
2022/04/16 06:56:10;;;;;;;4.30;3.53;;;13.60;97.20;;;;;;1688983;29;20232;-76
2022/04/16 06:57:01;;;;;;;3.80;3.50;;;13.60;97.20;;;;;;1690542;29;20209;-75
2022/04/16 06:57:52;;;;;;;3.78;3.33;;;13.60;97.20;;;;;;1689691;29;20197;-75
2022/04/16 06:58:44;;;;;;;4.00;3.70;;;13.60;97.20;;;;;;1688602;29;20283;-76
2022/04/16 06:59:35;;;;;;;3.72;3.42;;;13.60;97.20;;;;;;1688680;29;20695;-75
2022/04/16 07:00:26;;;;;;;3.70;3.40;;;13.60;97.20;;;;;;1688795;29;20212;-75
2022/04/16 07:01:17;;;;;;;3.58;3.28;;;13.60;97.20;;;;;;1688751;29;20456;-75
2022/04/16 07:02:10;;;;;;;5.40;3.77;;;13.50;97.20;;;;;;1688748;29;20199;-76
2022/04/16 07:03:01;;;;;;;4.35;3.95;;;13.50;97.20;;;;;;1688662;29;20279;-75
2022/04/16 07:03:52;;;;;;;4.35;3.92;;;13.50;97.20;;;;;;1688721;29;20249;-75
2022/04/16 07:04:45;;;;;;;4.03;3.70;;;13.50;97.20;;;;;;1688637;29;20312;-75
2022/04/16 07:05:36;;;;;;;4.35;3.95;;;13.50;97.20;;;;;;1688789;29;20246;-75
2022/04/16 07:06:28;;;;;;;4.80;4.40;;;13.50;97.20;;;;;;1685633;29;20205;-75
2022/04/16 07:07:19;;;;;;;4.50;4.10;;;13.50;97.20;;;;;;1682469;29;20923;-75
2022/04/16 07:08:10;;;;;;;3.63;3.33;;;13.50;97.20;;;;;;1681974;29;20538;-75
2022/04/16 07:09:01;;;;;;;3.90;3.60;;;13.50;97.20;;;;;;1683321;29;20211;-74
2022/04/16 07:09:53;;;;;;;4.67;4.10;;;13.50;97.20;;;;;;1688537;29;20243;-75
2022/04/16 07:10:44;;;;;;;4.97;4.57;;;13.50;97.20;;;;;;1688513;29;20208;-74
2022/04/16 07:11:35;;;;;;;4.67;4.37;;;13.50;97.20;;;;;;1688553;29;20207;-75
2022/04/16 07:12:26;;;;;;;5.43;4.93;;;13.50;97.20;;;;;;1688418;29;20215;-74
2022/04/16 07:13:18;;;;;;;4.97;4.57;;;13.60;97.20;;;;;;1682332;29;20209;-74
2022/04/16 07:14:08;;;;;;;4.80;4.40;;;13.60;97.20;;;;;;1682190;29;20586;-75
2022/04/16 07:15:00;;;;;;;4.53;4.20;;;13.60;97.20;;;;;;1682119;29;20263;-74
2022/04/16 07:15:51;;;;;;;4.10;3.80;;;13.60;97.20;;;;;;1682262;29;20221;-75
2022/04/16 07:16:43;;;;;;;4.57;4.17;;;13.60;97.20;;;;;;1682328;29;20227;-75
2022/04/16 07:17:34;;;;;;;4.75;4.35;;;13.60;97.20;;;;;;1684084;29;20209;-75
2022/04/16 07:18:25;;;;;;;4.90;4.50;;;13.60;97.20;;;;;;1688097;29;20201;-74
2022/04/16 07:19:16;;;;;;;5.13;4.15;;;13.60;97.20;;;;;;1688758;29;20208;-75
2022/04/16 07:20:10;;;;;;;5.03;4.50;;;13.60;97.20;;;;;;1688866;29;20199;-75
2022/04/16 07:21:01;;;;;;;4.57;4.18;;;13.60;97.20;;;;;;1685868;29;20220;-75
2022/04/16 07:21:54;;;;;;;4.80;4.33;;;13.60;97.20;;;;;;1685270;29;20251;-75
2022/04/16 07:22:44;;;;;;;4.55;4.15;;;13.60;97.20;;;;;;1688685;29;20352;-74
2022/04/16 07:23:36;;;;;;;4.57;4.17;;;13.70;97.20;;;;;;1688805;29;20201;-75
2022/04/16 07:24:27;;;;;;;4.30;4.00;;;13.70;97.20;;;;;;1688892;29;20655;-75
2022/04/16 07:25:20;;;;;;;4.30;3.93;;;13.70;97.20;;;;;;1687745;29;20643;-76
2022/04/16 07:26:10;;;;;;;4.82;4.43;;;13.70;97.20;;;;;;1687848;29;20660;-75
2022/04/16 07:27:02;;;;;;;3.97;3.67;;;13.70;97.20;;;;;;1687344;29;20667;-76
2022/04/16 07:27:53;;;;;;;4.78;4.28;;;13.70;97.20;;;;;;1682278;29;20239;-75
2022/04/16 07:28:44;;;;;;;4.67;4.27;;;13.70;97.20;;;;;;1681989;29;20209;-75
2022/04/16 07:29:35;;;;;;;4.93;4.47;;;13.70;97.20;;;;;;1682129;29;20209;-76
2022/04/16 07:30:27;;;;;;;4.67;4.27;;;13.70;97.20;;;;;;1682193;29;20207;-76
2022/04/16 07:31:18;;;;;;;4.90;4.50;;;13.70;97.20;;;;;;1685699;29;20630;-77
2022/04/16 07:32:10;;;;;;;4.37;4.00;;;13.70;97.20;;;;;;1688648;29;20276;-75
2022/04/16 07:33:01;;;;;;;4.78;4.38;;;13.70;97.20;;;;;;1688613;29;20208;-76
2022/04/16 07:33:52;;;;;;;4.47;4.17;;;13.70;97.20;;;;;;1688639;29;20208;-76
2022/04/16 07:34:43;;;;;;;5.43;4.93;;;13.70;97.20;;;;;;1688486;29;20632;-76
2022/04/16 07:35:38;;;;;;;5.50;5.00;;;13.80;97.20;;;;;;1688581;29;20212;-76
2022/04/16 07:36:29;;;;;;;4.60;4.20;;;13.80;97.20;;;;;;1688601;29;20348;-75
2022/04/16 07:37:22;;;;;;;6.47;4.80;;;13.80;97.20;;;;;;1688524;29;20255;-76
2022/04/16 07:38:13;;;;;;;4.57;4.18;;;13.80;97.20;;;;;;1688254;29;20291;-76
2022/04/16 07:39:05;;;;;;;5.20;4.70;;;13.90;97.20;;;;;;1688669;29;20201;-76
2022/04/16 07:39:56;;;;;;;7.25;4.60;;;13.90;97.20;;;;;;1688532;29;20223;-76
2022/04/16 07:40:48;;;;;;;3.90;3.60;;;13.90;97.20;;;;;;1688583;29;20291;-76
2022/04/16 07:41:38;;;;;;;4.60;4.13;;;14.00;97.20;;;;;;1688395;29;20215;-76
2022/04/16 07:42:32;;;;;;;4.47;4.03;;;14.00;97.20;;;;;;1688510;29;20207;-75
2022/04/16 07:43:22;;;;;;;6.20;4.70;;;14.10;97.20;;;;;;1688480;29;20208;-76
2022/04/16 07:44:14;;;;;;;5.57;5.07;;;14.10;97.20;;;;;;1688535;29;20710;-75
2022/04/16 07:45:06;;;;;;;5.40;5.00;;;14.10;97.20;;;;;;1688440;29;20231;-75
2022/04/16 07:45:58;;;;;;;4.85;4.40;;;14.10;97.20;;;;;;1688626;29;20288;-76
2022/04/16 07:46:49;;;;;;;5.35;4.95;;;14.20;97.20;;;;;;1688583;29;20625;-76
2022/04/16 07:47:40;;;;;;;5.03;4.63;;;14.20;97.20;;;;;;1688666;29;20240;-76
2022/04/16 07:48:33;;;;;;;5.90;4.80;;;14.20;97.20;;;;;;1688290;29;20215;-76
2022/04/16 07:49:24;;;;;;;5.28;4.78;;;14.30;97.20;;;;;;1688565;29;20287;-76
2022/04/16 07:50:16;;;;;;;4.90;4.50;;;14.30;97.20;;;;;;1688789;29;20256;-76
2022/04/16 07:51:09;;;;;;;5.00;4.60;;;14.30;97.20;;;;;;1688536;29;20231;-76
2022/04/16 07:52:00;;;;;;;6.80;6.10;;;14.30;97.20;;;;;;1688406;29;20204;-76
2022/04/16 07:52:52;;;;;;;5.63;4.70;;;14.30;97.20;;;;;;1688438;29;20276;-75
2022/04/16 07:53:42;;;;;;;6.03;4.75;;;14.30;97.20;;;;;;1688578;29;20743;-77
2022/04/16 07:54:34;;;;;;;5.30;4.80;;;14.30;97.20;;;;;;1688370;29;20633;-75
2022/04/16 07:55:28;;;;;;;5.72;5.20;;;14.30;97.20;;;;;;1688116;29;20201;-76
2022/04/16 07:56:18;;;;;;;5.63;5.10;;;14.30;97.20;;;;;;1686205;29;20209;-77
2022/04/16 07:57:13;;;;;;;5.80;5.30;;;14.30;97.20;;;;;;1685598;29;20200;-75
2022/04/16 07:58:04;;;;;;;5.75;5.25;;;14.30;97.20;;;;;;1685836;29;20205;-76
2022/04/16 07:58:56;;;;;;;6.97;5.90;;;14.30;97.20;;;;;;1686440;29;20201;-76
2022/04/16 07:59:47;;;;;;;5.70;5.10;;;14.30;97.20;;;;;;1686489;29;20461;-76
2022/04/16 08:00:38;;;;;;;5.90;5.40;;;14.30;97.20;;;;;;1686511;29;20237;-75
2022/04/16 08:01:29;;;;;;;6.85;6.20;;;14.30;97.20;;;;;;1686152;29;20205;-75
2022/04/16 08:02:21;;;;;;;6.30;5.70;;;14.30;97.20;;;;;;1686881;29;20193;-75
2022/04/16 08:03:12;;;;;;;6.03;5.53;;;14.30;97.20;;;;;;1687440;29;20209;-74
2022/04/16 08:04:04;;;;;;;5.77;5.23;;;14.20;97.20;;;;;;1686518;29;20197;-76
2022/04/16 08:04:55;;;;;;;5.88;5.07;;;14.20;97.20;;;;;;1686283;29;20217;-75
2022/04/16 08:05:46;;;;;;;5.50;5.00;;;14.20;97.20;;;;;;1686575;29;20295;-77
2022/04/16 08:06:39;;;;;;;11.90;10.43;;;14.20;97.20;;;;;;1687308;29;20644;-76
2022/04/16 08:07:32;;;;;;;11.52;10.07;;;14.20;97.20;;;;;;1686224;29;20256;-79
2022/04/16 08:08:22;;;;;;;8.65;6.60;;;14.20;97.20;;;;;;1686182;29;20661;-75
2022/04/16 08:09:14;;;;;;;8.40;7.13;;;14.10;97.20;;;;;;1686570;29;20743;-75
2022/04/16 08:10:06;;;;;;;6.00;5.38;;;14.10;97.20;;;;;;1686395;29;20966;-76
2022/04/16 08:10:58;;;;;;;6.10;5.57;;;14.10;97.20;;;;;;1686187;29;20268;-75
2022/04/16 08:11:49;;;;;;;6.07;5.57;;;14.10;97.20;;;;;;1686379;29;20204;-76
2022/04/16 08:12:41;;;;;;;5.80;5.10;;;14.10;97.20;;;;;;1686430;29;20215;-75
2022/04/16 08:13:32;;;;;;;6.10;5.50;;;14.10;97.20;;;;;;1685713;29;20209;-75
2022/04/16 08:14:25;;;;;;;6.10;5.50;;;14.10;97.20;;;;;;1685680;29;20200;-75
2022/04/16 08:15:16;;;;;;;7.15;6.55;;;14.20;97.20;;;;;;1685580;29;20303;-75
2022/04/16 08:16:07;;;;;;;6.35;5.82;;;14.20;97.20;;;;;;1686083;29;20253;-75
2022/04/16 08:16:59;;;;;;;7.45;6.75;;;14.20;97.20;;;;;;1685891;29;20232;-75
2022/04/16 08:17:50;;;;;;;6.18;5.57;;;14.20;97.20;;;;;;1685941;29;20674;-75
2022/04/16 08:18:41;;;;;;;6.75;6.05;;;14.20;97.20;;;;;;1685469;29;20204;-75
2022/04/16 08:19:33;;;;;;;7.73;5.57;;;14.20;97.20;;;;;;1685256;29;20207;-75
2022/04/16 08:20:24;;;;;;;6.13;5.53;;;14.30;97.20;;;;;;1685731;29;20197;-75
2022/04/16 08:21:15;;;;;;;6.57;5.90;;;14.30;97.20;;;;;;1685709;29;20665;-75
2022/04/16 08:22:10;;;;;;;7.40;5.63;;;14.40;97.20;;;;;;1685583;29;20247;-75
2022/04/16 08:23:05;;;;;;;6.63;5.95;;;14.40;97.20;;;;;;1686240;29;20659;-74
2022/04/16 08:23:57;;;;;;;7.72;7.03;;;14.50;97.20;;;;;;1685926;29;20300;-75
2022/04/16 08:25:43;;;;;;;6.50;5.90;;;14.50;97.20;;;;;;1685891;29;20996;-75
2022/04/16 08:26:06;;;;;;;6.60;6.00;;;14.50;97.20;;;;;;1685792;29;20752;-75
2022/04/16 08:26:57;;;;;;;5.93;5.43;;;14.60;97.20;;;;;;1685908;29;20201;-75
2022/04/16 08:27:51;;;;;;;6.78;6.00;;;14.60;97.20;;;;;;1686191;29;20855;-75
2022/04/16 08:28:42;;;;;;;6.32;5.70;;;14.70;97.20;;;;;;1685837;29;20201;-75
2022/04/16 08:29:33;;;;;;;13.27;7.32;;;14.70;97.20;;;;;;1686540;29;20244;-75
2022/04/16 08:30:25;;;;;;;7.83;7.10;;;14.70;97.20;;;;;;1686277;29;20200;-75
2022/04/16 08:31:16;;;;;;;8.70;7.80;;;14.80;97.20;;;;;;1686469;29;20200;-75
2022/04/16 08:32:08;;;;;;;7.87;7.17;;;14.90;97.20;;;;;;1687747;29;20193;-75
2022/04/16 08:32:59;;;;;;;7.22;6.57;;;15.00;97.20;;;;;;1691474;29;20193;-75
2022/04/16 08:33:51;;;;;;;6.85;6.25;;;15.00;97.20;;;;;;1686369;29;20211;-75
2022/04/16 08:34:41;;;;;;;6.82;6.13;;;15.10;97.20;;;;;;1686003;29;20248;-74
2022/04/16 08:35:33;;;;;;;8.20;5.93;;;15.20;97.20;;;;;;1685989;29;20208;-75
2022/04/16 08:36:26;;;;;;;8.52;6.80;;;15.20;97.20;;;;;;1686256;29;20208;-74
2022/04/16 08:37:18;;;;;;;7.10;6.50;;;15.30;97.20;;;;;;1686947;29;20193;-74
2022/04/16 08:38:11;;;;;;;7.47;6.88;;;15.30;97.20;;;;;;1686085;29;20793;-74
2022/04/16 08:39:02;;;;;;;7.53;6.82;;;15.40;97.20;;;;;;1686716;29;20296;-74
2022/04/16 08:39:54;;;;;;;6.60;5.93;;;15.40;97.20;;;;;;1686655;29;20309;-75
2022/04/16 08:40:44;;;;;;;8.52;6.10;;;15.50;97.20;;;;;;1686570;29;20204;-74
2022/04/16 08:41:37;;;;;;;7.00;6.27;;;15.50;97.20;;;;;;1686066;29;20189;-75
2022/04/16 08:42:29;;;;;;;6.30;5.68;;;15.50;97.20;;;;;;1686052;29;20463;-75
2022/04/16 08:43:21;;;;;;;7.32;6.65;;;15.50;97.20;;;;;;1686246;29;21980;-74
2022/04/16 08:44:14;;;;;;;6.40;5.80;;;15.60;97.20;;;;;;1686084;29;20698;-74
2022/04/16 08:45:07;;;;;;;6.75;6.15;;;15.60;97.20;;;;;;1686888;29;20222;-74
2022/04/16 08:45:59;;;;;;;6.30;5.70;;;15.70;97.20;;;;;;1686461;29;20204;-74
2022/04/16 08:46:51;;;;;;;6.85;6.25;;;15.70;97.20;;;;;;1685218;29;20204;-74
2022/04/16 08:47:41;;;;;;;5.95;5.35;;;15.80;97.20;;;;;;1686189;29;20687;-77
2022/04/16 08:48:33;;;;;;;6.47;5.87;;;15.90;97.20;;;;;;1685662;29;20573;-77
2022/04/16 08:49:25;;;;;;;6.00;5.50;;;15.90;97.20;;;;;;1686020;29;20230;-76
2022/04/16 08:50:16;;;;;;;7.60;6.65;;;16.00;97.20;;;;;;1686076;29;20207;-77
2022/04/16 08:51:07;;;;;;;6.75;6.05;;;16.00;97.20;;;;;;1686094;29;20208;-76
2022/04/16 08:51:59;;;;;;;6.40;5.80;;;16.10;97.20;;;;;;1686319;29;20202;-76
2022/04/16 08:52:52;;;;;;;7.35;5.47;;;16.10;97.20;;;;;;1686586;29;20449;-76
2022/04/16 08:53:43;;;;;;;9.05;6.30;;;16.20;97.20;;;;;;1687021;29;20208;-77
2022/04/16 08:54:36;;;;;;;5.80;5.30;;;16.30;97.20;;;;;;1685724;29;20283;-76
2022/04/16 08:55:29;;;;;;;6.43;5.72;;;16.40;97.20;;;;;;1685683;29;20204;-76
2022/04/16 08:56:20;;;;;;;6.03;5.53;;;16.50;97.20;;;;;;1687615;29;20259;-77
2022/04/16 08:57:13;;;;;;;7.00;6.30;;;16.60;97.20;;;;;;1685990;29;20201;-76
2022/04/16 08:58:04;;;;;;;6.53;5.93;;;16.60;97.20;;;;;;1686150;29;20500;-77
2022/04/16 08:58:56;;;;;;;6.22;5.70;;;16.70;97.20;;;;;;1686236;29;20260;-76
2022/04/16 08:59:50;;;;;;;6.20;5.60;;;16.80;97.20;;;;;;1685293;29;20220;-76
2022/04/16 09:00:42;;;;;;;8.20;6.00;;;16.90;97.20;;;;;;1685319;29;20248;-76
2022/04/16 09:01:34;;;;;;;7.53;6.70;;;17.00;97.20;;;;;;1684788;29;20287;-76
2022/04/16 09:02:28;;;;;;;6.47;5.88;;;17.10;97.20;;;;;;1685260;29;20197;-76
2022/04/16 09:03:19;;;;;;;6.13;5.60;;;17.20;97.20;;;;;;1685720;29;20220;-76
2022/04/16 09:04:19;;;;;;;7.00;6.40;;;17.30;97.20;;;;;;1685177;29;20199;-77
2022/04/16 09:05:11;;;;;;;6.82;6.20;;;17.40;97.20;;;;;;1684980;29;20201;-76
2022/04/16 09:06:03;;;;;;;6.72;6.10;;;17.50;97.20;;;;;;1686387;29;20661;-76
2022/04/16 09:06:56;;;;;;;6.40;5.88;;;17.60;97.20;;;;;;1685935;29;20723;-76
2022/04/16 09:07:49;;;;;;;6.05;5.55;;;17.70;97.20;;;;;;1685875;29;20200;-76
2022/04/16 09:08:41;;;;;;;7.90;5.95;;;17.80;97.20;;;;;;1684710;29;20216;-76
2022/04/16 09:09:33;;;;;;;6.63;6.07;;;17.90;97.20;;;;;;1685390;29;20205;-76
2022/04/16 09:10:27;;;;;;;6.00;5.40;;;18.00;97.20;;;;;;1685448;29;20213;-76
2022/04/16 09:11:21;;;;;;;6.78;6.07;;;18.10;97.20;;;;;;1685651;29;20209;-76
2022/04/16 09:12:17;;;;;;;6.40;5.80;;;18.20;97.20;;;;;;1686636;29;20952;-76
2022/04/16 09:13:08;;;;;;;5.97;5.47;;;18.30;97.20;;;;;;1686003;29;20288;-76
2022/04/16 09:14:00;;;;;;;5.87;5.27;;;18.30;97.20;;;;;;1685993;29;20204;-76
2022/04/16 09:14:51;;;;;;;6.13;5.53;;;18.40;97.20;;;;;;1685773;29;20315;-76
2022/04/16 09:15:45;;;;;;;5.70;5.13;;;18.40;97.20;;;;;;1685705;29;20262;-77
2022/04/16 09:16:39;;;;;;;6.85;6.10;;;18.40;97.20;;;;;;1686358;29;20568;-76
2022/04/16 09:17:32;;;;;;;6.35;5.75;;;18.40;97.20;;;;;;1686019;29;20283;-76
2022/04/16 09:18:23;;;;;;;6.30;5.70;;;18.30;97.20;;;;;;1685534;29;20683;-76
2022/04/16 09:19:17;;;;;;;6.17;5.63;;;18.20;97.20;;;;;;1686121;29;20985;-77
2022/04/16 09:20:12;;;;;;;6.15;5.65;;;18.10;97.20;;;;;;1685907;29;20268;-76
2022/04/16 09:21:11;;;;;;;6.43;5.82;;;18.00;97.20;;;;;;1685907;29;20203;-76
2022/04/16 09:22:02;;;;;;;5.75;5.15;;;17.90;97.20;;;;;;1686250;29;20200;-76
2022/04/16 09:22:54;;;;;;;6.03;5.53;;;17.70;97.20;;;;;;1686124;29;20260;-76
2022/04/16 09:23:50;;;;;;;6.25;5.70;;;17.60;97.20;;;;;;1685511;29;20852;-76
2022/04/16 09:24:45;;;;;;;7.07;5.80;;;17.50;97.20;;;;;;1685887;29;20287;-76
2022/04/16 09:25:36;;;;;;;5.78;5.25;;;17.30;97.20;;;;;;1685822;29;20205;-76
2022/04/16 09:26:30;;;;;;;7.07;5.60;;;17.20;97.20;;;;;;1685359;29;20212;-76
2022/04/16 09:27:21;;;;;;;6.03;5.53;;;17.10;97.20;;;;;;1685398;29;20197;-76
2022/04/16 09:28:14;;;;;;;6.45;5.78;;;16.90;97.20;;;;;;1685000;29;20700;-76
2022/04/16 09:29:07;;;;;;;6.50;5.90;;;16.80;97.20;;;;;;1685327;29;20205;-76
2022/04/16 09:30:04;;;;;;;7.22;6.55;;;16.70;97.20;;;;;;1685594;29;20209;-76
2022/04/16 09:30:57;;;;;;;6.43;5.85;;;16.60;97.20;;;;;;1686008;29;20696;-76